sensor_id;sensor_type;location;lat;lon;timestamp;pressure;altitude;pressure_sealevel;temperature;humidity
52105;BME280;38103;42.776;23.112;2023-01-15T00:00:38;94338.78;;;1.67;100.00
52105;BME280;38103;42.776;23.112;2023-01-15T00:03:04;94336.84;;;1.61;100.00
52105;BME280;38103;42.776;23.112;2023-01-15T00:05:29;94346.63;;;1.67;100.00
52105;BME280;38103;42.776;23.112;2023-01-15T00:07:54;94349.50;;;1.73;100.00
52105;BME280;38103;42.776;23.112;2023-01-15T00:10:20;94348.91;;;1.62;100.00
52105;BME280;38103;42.776;23.112;2023-01-15T00:12:45;94353.50;;;1.52;100.00
52105;BME280;38103;42.776;23.112;2023-01-15T00:15:11;94343.75;;;1.45;100.00
52105;BME280;38103;42.776;23.112;2023-01-15T00:17:36;94348.97;;;1.37;100.00
52105;BME280;38103;42.776;23.112;2023-01-15T00:20:02;94355.81;;;1.38;100.00
52105;BME280;38103;42.776;23.112;2023-01-15T00:22:27;94354.47;;;1.51;100.00
52105;BME280;38103;42.776;23.112;2023-01-15T00:24:53;94352.16;;;1.64;100.00
52105;BME280;38103;42.776;23.112;2023-01-15T00:27:37;94352.41;;;1.78;100.00
52105;BME280;38103;42.776;23.112;2023-01-15T00:30:04;94349.78;;;1.86;100.00
52105;BME280;38103;42.776;23.112;2023-01-15T00:32:29;94324.75;;;1.77;100.00
52105;BME280;38103;42.776;23.112;2023-01-15T00:34:57;94349.09;;;1.93;100.00
52105;BME280;38103;42.776;23.112;2023-01-15T00:37:23;94291.56;;;1.62;100.00
52105;BME280;38103;42.776;23.112;2023-01-15T00:39:48;94342.75;;;1.95;100.00
52105;BME280;38103;42.776;23.112;2023-01-15T00:42:14;94299.84;;;1.66;100.00
52105;BME280;38103;42.776;23.112;2023-01-15T00:44:40;94343.06;;;1.92;100.00
52105;BME280;38103;42.776;23.112;2023-01-15T00:47:05;94336.38;;;1.98;100.00
52105;BME280;38103;42.776;23.112;2023-01-15T00:49:38;94335.38;;;1.99;100.00
52105;BME280;38103;42.776;23.112;2023-01-15T00:52:03;94326.88;;;2.05;100.00
52105;BME280;38103;42.776;23.112;2023-01-15T00:54:29;94331.38;;;2.11;100.00
52105;BME280;38103;42.776;23.112;2023-01-15T00:56:54;94329.91;;;2.17;100.00
52105;BME280;38103;42.776;23.112;2023-01-15T00:59:20;94324.81;;;2.24;100.00
52105;BME280;38103;42.776;23.112;2023-01-15T01:01:45;94331.31;;;2.28;100.00
52105;BME280;38103;42.776;23.112;2023-01-15T01:04:10;94329.00;;;2.33;100.00
52105;BME280;38103;42.776;23.112;2023-01-15T01:06:36;94328.00;;;2.34;100.00
52105;BME280;38103;42.776;23.112;2023-01-15T01:09:01;94336.28;;;2.38;100.00
52105;BME280;38103;42.776;23.112;2023-01-15T01:11:27;94323.06;;;2.40;100.00
52105;BME280;38103;42.776;23.112;2023-01-15T01:13:57;94324.69;;;2.41;100.00
52105;BME280;38103;42.776;23.112;2023-01-15T01:16:36;94332.34;;;2.42;100.00
52105;BME280;38103;42.776;23.112;2023-01-15T01:19:07;94329.56;;;2.44;100.00
52105;BME280;38103;42.776;23.112;2023-01-15T01:21:34;94334.78;;;2.44;100.00
52105;BME280;38103;42.776;23.112;2023-01-15T01:24:00;94320.75;;;2.45;100.00
52105;BME280;38103;42.776;23.112;2023-01-15T01:26:29;94320.75;;;2.45;100.00
52105;BME280;38103;42.776;23.112;2023-01-15T01:28:56;94276.63;;;2.11;100.00
52105;BME280;38103;42.776;23.112;2023-01-15T01:31:22;94309.75;;;2.34;100.00
52105;BME280;38103;42.776;23.112;2023-01-15T01:33:49;94321.09;;;2.42;100.00
52105;BME280;38103;42.776;23.112;2023-01-15T01:36:15;94327.94;;;2.43;100.00
52105;BME280;38103;42.776;23.112;2023-01-15T01:38:41;94325.03;;;2.38;100.00
52105;BME280;38103;42.776;23.112;2023-01-15T01:41:06;94329.91;;;2.41;100.00
52105;BME280;38103;42.776;23.112;2023-01-15T01:43:51;94327.31;;;2.41;100.00
52105;BME280;38103;42.776;23.112;2023-01-15T01:46:17;94333.50;;;2.40;100.00
52105;BME280;38103;42.776;23.112;2023-01-15T01:48:43;94309.16;;;2.24;100.00
52105;BME280;38103;42.776;23.112;2023-01-15T01:51:09;94324.69;;;2.41;100.00
52105;BME280;38103;42.776;23.112;2023-01-15T01:53:36;94298.06;;;2.22;100.00
52105;BME280;38103;42.776;23.112;2023-01-15T01:56:02;94319.47;;;2.41;100.00
52105;BME280;38103;42.776;23.112;2023-01-15T01:58:31;94319.13;;;2.44;100.00
52105;BME280;38103;42.776;23.112;2023-01-15T02:00:58;94322.38;;;2.46;100.00
52105;BME280;38103;42.776;23.112;2023-01-15T02:03:29;94323.00;;;2.48;100.00
52105;BME280;38103;42.776;23.112;2023-01-15T02:05:58;94316.00;;;2.49;100.00
52105;BME280;38103;42.776;23.112;2023-01-15T02:08:25;94315.19;;;2.48;100.00
52105;BME280;38103;42.776;23.112;2023-01-15T02:10:54;94313.56;;;2.47;100.00
52105;BME280;38103;42.776;23.112;2023-01-15T02:13:38;94312.91;;;2.45;100.00
52105;BME280;38103;42.776;23.112;2023-01-15T02:16:27;94312.63;;;2.40;100.00
52105;BME280;38103;42.776;23.112;2023-01-15T02:29:10;94302.56;;;2.37;100.00
52105;BME280;38103;42.776;23.112;2023-01-15T02:31:41;94303.00;;;2.40;100.00
52105;BME280;38103;42.776;23.112;2023-01-15T02:34:18;94299.75;;;2.38;100.00
52105;BME280;38103;42.776;23.112;2023-01-15T02:36:53;94305.78;;;2.39;100.00
52105;BME280;38103;42.776;23.112;2023-01-15T02:39:22;94303.00;;;2.40;100.00
52105;BME280;38103;42.776;23.112;2023-01-15T02:41:50;94306.13;;;2.36;100.00
52105;BME280;38103;42.776;23.112;2023-01-15T02:44:21;94309.75;;;2.34;100.00
52105;BME280;38103;42.776;23.112;2023-01-15T02:46:47;94300.72;;;2.37;100.00
52105;BME280;38103;42.776;23.112;2023-01-15T02:49:16;94313.00;;;2.37;100.00
52105;BME280;38103;42.776;23.112;2023-01-15T02:54:16;94300.00;;;2.28;100.00
52105;BME280;38103;42.776;23.112;2023-01-15T02:56:46;94317.97;;;2.23;100.00
52105;BME280;38103;42.776;23.112;2023-01-15T02:59:21;94303.94;;;2.24;100.00
52105;BME280;38103;42.776;23.112;2023-01-15T03:01:53;94307.19;;;2.26;100.00
52105;BME280;38103;42.776;23.112;2023-01-15T03:09:40;94305.09;;;2.21;100.00
52105;BME280;38103;42.776;23.112;2023-01-15T03:12:41;94306.94;;;2.12;100.00
52105;BME280;38103;42.776;23.112;2023-01-15T03:15:26;94303.69;;;2.10;100.00
52105;BME280;38103;42.776;23.112;2023-01-15T03:18:14;94302.06;;;2.09;100.00
52105;BME280;38103;42.776;23.112;2023-01-15T03:20:47;94299.75;;;2.15;100.00
52105;BME280;38103;42.776;23.112;2023-01-15T03:23:15;94302.66;;;2.20;100.00
52105;BME280;38103;42.776;23.112;2023-01-15T03:25:46;94312.28;;;2.19;100.00
52105;BME280;38103;42.776;23.112;2023-01-15T03:28:14;94304.63;;;2.18;100.00
52105;BME280;38103;42.776;23.112;2023-01-15T03:30:42;94306.25;;;2.19;100.00
52105;BME280;38103;42.776;23.112;2023-01-15T03:33:08;94305.91;;;2.22;100.00
52105;BME280;38103;42.776;23.112;2023-01-15T03:35:46;94300.69;;;2.22;100.00
52105;BME280;38103;42.776;23.112;2023-01-15T03:38:13;94300.69;;;2.22;100.00
52105;BME280;38103;42.776;23.112;2023-01-15T03:49:39;94296.03;;;2.32;100.00
52105;BME280;38103;42.776;23.112;2023-01-15T03:52:26;94299.31;;;2.34;100.00
52105;BME280;38103;42.776;23.112;2023-01-15T03:55:17;94295.34;;;2.39;100.00
52105;BME280;38103;42.776;23.112;2023-01-15T04:00:27;94293.72;;;2.38;100.00
52105;BME280;38103;42.776;23.112;2023-01-15T04:02:55;94296.19;;;2.39;100.00
52105;BME280;38103;42.776;23.112;2023-01-15T04:05:23;94299.22;;;2.43;100.00
52105;BME280;38103;42.776;23.112;2023-01-15T04:07:50;94296.00;;;2.41;100.00
52105;BME280;38103;42.776;23.112;2023-01-15T04:10:17;94290.13;;;2.39;100.00
52105;BME280;38103;42.776;23.112;2023-01-15T04:12:43;94295.00;;;2.42;100.00
52105;BME280;38103;42.776;23.112;2023-01-15T04:15:10;94294.81;;;2.43;100.00
52105;BME280;38103;42.776;23.112;2023-01-15T04:17:36;94236.94;;;2.01;100.00
52105;BME280;38103;42.776;23.112;2023-01-15T04:20:01;94297.34;;;2.37;100.00
52105;BME280;38103;42.776;23.112;2023-01-15T04:22:26;94297.50;;;2.35;100.00
52105;BME280;38103;42.776;23.112;2023-01-15T04:24:52;94300.91;;;2.36;100.00
52105;BME280;38103;42.776;23.112;2023-01-15T04:27:19;94296.03;;;2.32;100.00
52105;BME280;38103;42.776;23.112;2023-01-15T04:29:44;94304.06;;;2.31;100.00
52105;BME280;38103;42.776;23.112;2023-01-15T04:32:10;94296.84;;;2.33;100.00
52105;BME280;38103;42.776;23.112;2023-01-15T04:34:35;94283.75;;;2.18;100.00
52105;BME280;38103;42.776;23.112;2023-01-15T04:37:00;94299.66;;;2.31;100.00
52105;BME280;38103;42.776;23.112;2023-01-15T04:39:26;94297.03;;;2.31;100.00
52105;BME280;38103;42.776;23.112;2023-01-15T04:41:51;94280.19;;;2.19;100.00
52105;BME280;38103;42.776;23.112;2023-01-15T04:44:35;94296.75;;;2.26;100.00
52105;BME280;38103;42.776;23.112;2023-01-15T04:47:01;94292.56;;;2.17;100.00
52105;BME280;38103;42.776;23.112;2023-01-15T04:49:27;94298.88;;;1.99;100.00
52105;BME280;38103;42.776;23.112;2023-01-15T04:51:52;94291.97;;;2.06;100.00
52105;BME280;38103;42.776;23.112;2023-01-15T04:54:18;94295.88;;;2.10;100.00
52105;BME280;38103;42.776;23.112;2023-01-15T04:56:49;94290.38;;;2.05;100.00
52105;BME280;38103;42.776;23.112;2023-01-15T04:59:18;94295.25;;;2.08;100.00
52105;BME280;38103;42.776;23.112;2023-01-15T05:01:44;94288.50;;;2.14;100.00
52105;BME280;38103;42.776;23.112;2023-01-15T05:04:09;94297.78;;;2.17;100.00
52105;BME280;38103;42.776;23.112;2023-01-15T05:06:35;94299.41;;;2.18;100.00
52105;BME280;38103;42.776;23.112;2023-01-15T05:09:00;94299.41;;;2.18;100.00
52105;BME280;38103;42.776;23.112;2023-01-15T05:11:28;94304.44;;;2.19;100.00
52105;BME280;38103;42.776;23.112;2023-01-15T05:13:54;94302.50;;;2.21;100.00
52105;BME280;38103;42.776;23.112;2023-01-15T05:16:23;94298.72;;;2.24;100.00
52105;BME280;38103;42.776;23.112;2023-01-15T05:18:50;94304.91;;;2.23;99.94
52105;BME280;38103;42.776;23.112;2023-01-15T05:21:18;94310.28;;;1.98;100.00
52105;BME280;38103;42.776;23.112;2023-01-15T05:23:49;94316.16;;;2.00;100.00
52105;BME280;38103;42.776;23.112;2023-01-15T05:26:15;94275.25;;;1.69;100.00
52105;BME280;38103;42.776;23.112;2023-01-15T05:28:42;94268.25;;;1.69;100.00
52105;BME280;38103;42.776;23.112;2023-01-15T05:31:10;94317.59;;;2.03;100.00
52105;BME280;38103;42.776;23.112;2023-01-15T05:33:36;94320.84;;;2.05;100.00
52105;BME280;38103;42.776;23.112;2023-01-15T05:36:04;94263.22;;;1.67;100.00
52105;BME280;38103;42.776;23.112;2023-01-15T05:38:30;94315.50;;;1.98;100.00
52105;BME280;38103;42.776;23.112;2023-01-15T05:40:56;94312.28;;;1.96;100.00
52105;BME280;38103;42.776;23.112;2023-01-15T05:43:21;94314.69;;;1.97;100.00
52105;BME280;38103;42.776;23.112;2023-01-15T05:45:47;94310.63;;;1.95;100.00
52105;BME280;38103;42.776;23.112;2023-01-15T05:48:12;94311.06;;;1.75;100.00
52105;BME280;38103;42.776;23.112;2023-01-15T05:50:38;94318.81;;;1.83;100.00
52105;BME280;38103;42.776;23.112;2023-01-15T05:53:03;94302.72;;;1.80;100.00
52105;BME280;38103;42.776;23.112;2023-01-15T05:55:28;94317.53;;;1.87;100.00
52105;BME280;38103;42.776;23.112;2023-01-15T05:57:54;94322.09;;;1.85;100.00
52105;BME280;38103;42.776;23.112;2023-01-15T06:00:19;94320.47;;;1.84;100.00
52105;BME280;38103;42.776;23.112;2023-01-15T06:02:48;94321.13;;;1.78;100.00
52105;BME280;38103;42.776;23.112;2023-01-15T06:05:13;94317.88;;;1.76;100.00
52105;BME280;38103;42.776;23.112;2023-01-15T06:07:44;94319.53;;;1.77;100.00
52105;BME280;38103;42.776;23.112;2023-01-15T06:10:09;94304.56;;;1.71;100.00
52105;BME280;38103;42.776;23.112;2023-01-15T06:12:35;94313.00;;;1.73;100.00
52105;BME280;38103;42.776;23.112;2023-01-15T06:15:00;94309.44;;;1.74;100.00
52105;BME280;38103;42.776;23.112;2023-01-15T06:17:25;94286.91;;;1.49;100.00
52105;BME280;38103;42.776;23.112;2023-01-15T06:19:51;94311.03;;;1.43;100.00
52105;BME280;38103;42.776;23.112;2023-01-15T06:22:16;94306.25;;;1.55;100.00
52105;BME280;38103;42.776;23.112;2023-01-15T06:24:42;94319.34;;;1.38;100.00
52105;BME280;38103;42.776;23.112;2023-01-15T06:27:07;94315.09;;;1.37;100.00
52105;BME280;38103;42.776;23.112;2023-01-15T06:29:33;94320.06;;;1.07;100.00
52105;BME280;38103;42.776;23.112;2023-01-15T06:31:58;94319.44;;;0.96;100.00
52105;BME280;38103;42.776;23.112;2023-01-15T06:34:23;94320.75;;;1.00;100.00
52105;BME280;38103;42.776;23.112;2023-01-15T06:36:49;94319.75;;;1.10;100.00
52105;BME280;38103;42.776;23.112;2023-01-15T06:39:14;94322.59;;;1.32;100.00
52105;BME280;38103;42.776;23.112;2023-01-15T06:41:40;94319.16;;;1.40;100.00
52105;BME280;38103;42.776;23.112;2023-01-15T06:44:24;94320.28;;;1.54;100.00
52105;BME280;38103;42.776;23.112;2023-01-15T06:47:13;94318.22;;;1.73;100.00
52105;BME280;38103;42.776;23.112;2023-01-15T06:49:44;94316.63;;;1.63;100.00
52105;BME280;38103;42.776;23.112;2023-01-15T06:52:10;94314.94;;;1.79;100.00
52105;BME280;38103;42.776;23.112;2023-01-15T06:54:35;94319.44;;;1.94;100.00
52105;BME280;38103;42.776;23.112;2023-01-15T06:57:01;94313.03;;;2.05;100.00
52105;BME280;38103;42.776;23.112;2023-01-15T06:59:26;94318.66;;;2.17;100.00
52105;BME280;38103;42.776;23.112;2023-01-15T07:01:51;94323.66;;;1.95;100.00
52105;BME280;38103;42.776;23.112;2023-01-15T07:04:17;94326.47;;;1.93;100.00
52105;BME280;38103;42.776;23.112;2023-01-15T07:06:42;94302.63;;;1.96;100.00
52105;BME280;38103;42.776;23.112;2023-01-15T07:09:08;94323.56;;;2.11;100.00
52105;BME280;38103;42.776;23.112;2023-01-15T07:11:33;94275.47;;;1.59;100.00
52105;BME280;38103;42.776;23.112;2023-01-15T07:13:59;94326.53;;;2.08;100.00
52105;BME280;38103;42.776;23.112;2023-01-15T07:16:35;94321.22;;;2.25;100.00
52105;BME280;38103;42.776;23.112;2023-01-15T07:19:02;94322.94;;;2.56;100.00
52105;BME280;38103;42.776;23.112;2023-01-15T07:21:28;94320.97;;;2.59;100.00
52105;BME280;38103;42.776;23.112;2023-01-15T07:23:54;94285.03;;;2.22;100.00
52105;BME280;38103;42.776;23.112;2023-01-15T07:26:20;94329.53;;;2.52;100.00
52105;BME280;38103;42.776;23.112;2023-01-15T07:28:45;94331.75;;;2.79;98.49
52105;BME280;38103;42.776;23.112;2023-01-15T07:31:11;94329.44;;;2.99;99.34
52105;BME280;38103;42.776;23.112;2023-01-15T07:33:36;94331.56;;;3.19;98.13
52105;BME280;38103;42.776;23.112;2023-01-15T07:36:03;94330.56;;;3.35;95.06
52105;BME280;38103;42.776;23.112;2023-01-15T07:38:28;94329.22;;;3.40;92.09
52105;BME280;38103;42.776;23.112;2023-01-15T07:40:57;94310.47;;;3.36;91.39
52105;BME280;38103;42.776;23.112;2023-01-15T07:43:42;94330.13;;;3.62;91.01
52105;BME280;38103;42.776;23.112;2023-01-15T07:46:26;94335.88;;;3.73;91.54
52105;BME280;38103;42.776;23.112;2023-01-15T07:49:11;94324.94;;;3.84;91.83
52105;BME280;38103;42.776;23.112;2023-01-15T07:51:55;94327.19;;;3.87;90.39
52105;BME280;38103;42.776;23.112;2023-01-15T07:54:20;94315.44;;;3.46;92.56
52105;BME280;38103;42.776;23.112;2023-01-15T07:56:46;94326.88;;;3.30;91.69
52105;BME280;38103;42.776;23.112;2023-01-15T07:59:12;94328.13;;;3.34;92.15
52105;BME280;38103;42.776;23.112;2023-01-15T08:01:37;94334.34;;;3.48;92.21
52105;BME280;38103;42.776;23.112;2023-01-15T08:04:03;94337.69;;;3.57;92.00
52105;BME280;38103;42.776;23.112;2023-01-15T08:06:28;94327.69;;;3.45;91.30
52105;BME280;38103;42.776;23.112;2023-01-15T08:08:53;94325.53;;;3.49;91.57
52105;BME280;38103;42.776;23.112;2023-01-15T08:11:19;94322.09;;;3.64;91.43
52105;BME280;38103;42.776;23.112;2023-01-15T08:14:02;94331.47;;;3.73;91.44
52105;BME280;38103;42.776;23.112;2023-01-15T08:16:47;94337.41;;;3.82;90.78
52105;BME280;38103;42.776;23.112;2023-01-15T08:19:12;94334.81;;;3.67;89.89
52105;BME280;38103;42.776;23.112;2023-01-15T08:21:37;94331.94;;;3.46;92.32
52105;BME280;38103;42.776;23.112;2023-01-15T08:24:03;94338.59;;;3.64;92.33
52105;BME280;38103;42.776;23.112;2023-01-15T08:26:28;94328.66;;;3.75;92.50
52105;BME280;38103;42.776;23.112;2023-01-15T08:28:53;94338.41;;;3.81;93.24
52105;BME280;38103;42.776;23.112;2023-01-15T08:31:19;94330.06;;;3.93;91.06
52105;BME280;38103;42.776;23.112;2023-01-15T08:33:44;94333.25;;;3.88;89.23
52105;BME280;38103;42.776;23.112;2023-01-15T08:36:09;94335.53;;;3.76;89.78
52105;BME280;38103;42.776;23.112;2023-01-15T08:38:35;94333.34;;;3.64;89.23
52105;BME280;38103;42.776;23.112;2023-01-15T08:41:00;94340.66;;;3.69;90.12
52105;BME280;38103;42.776;23.112;2023-01-15T08:43:29;94336.31;;;3.91;89.80
52105;BME280;38103;42.776;23.112;2023-01-15T08:45:56;94335.22;;;4.01;89.42
52105;BME280;38103;42.776;23.112;2023-01-15T08:48:23;94329.00;;;4.02;88.97
52105;BME280;38103;42.776;23.112;2023-01-15T08:50:48;94330.34;;;3.98;88.85
52105;BME280;38103;42.776;23.112;2023-01-15T08:53:15;94336.94;;;3.94;89.17
52105;BME280;38103;42.776;23.112;2023-01-15T08:55:41;94337.06;;;4.07;89.96
52105;BME280;38103;42.776;23.112;2023-01-15T08:58:06;94333.00;;;4.20;89.61
52105;BME280;38103;42.776;23.112;2023-01-15T09:00:31;94338.88;;;4.22;89.29
52105;BME280;38103;42.776;23.112;2023-01-15T09:02:57;94335.38;;;4.36;90.62
52105;BME280;38103;42.776;23.112;2023-01-15T09:05:22;94325.66;;;4.52;88.79
52105;BME280;38103;42.776;23.112;2023-01-15T09:07:48;94330.16;;;4.36;86.74
52105;BME280;38103;42.776;23.112;2023-01-15T09:10:13;94324.59;;;4.46;88.34
52105;BME280;38103;42.776;23.112;2023-01-15T09:12:39;94328.91;;;4.54;86.93
52105;BME280;38103;42.776;23.112;2023-01-15T09:15:04;94326.91;;;4.56;87.61
52105;BME280;38103;42.776;23.112;2023-01-15T09:17:31;94321.91;;;4.62;87.03
52105;BME280;38103;42.776;23.112;2023-01-15T09:19:57;94312.94;;;4.71;87.14
52105;BME280;38103;42.776;23.112;2023-01-15T09:22:22;94307.72;;;4.71;86.33
52105;BME280;38103;42.776;23.112;2023-01-15T09:24:47;94308.38;;;4.80;86.65
52105;BME280;38103;42.776;23.112;2023-01-15T09:27:13;94303.47;;;4.70;86.00
52105;BME280;38103;42.776;23.112;2023-01-15T09:29:38;94281.19;;;4.59;86.72
52105;BME280;38103;42.776;23.112;2023-01-15T09:32:04;94294.84;;;4.76;85.50
52105;BME280;38103;42.776;23.112;2023-01-15T09:34:30;94293.84;;;4.77;85.99
52105;BME280;38103;42.776;23.112;2023-01-15T09:36:55;94293.22;;;4.75;85.61
52105;BME280;38103;42.776;23.112;2023-01-15T09:39:20;94282.88;;;4.67;86.36
52105;BME280;38103;42.776;23.112;2023-01-15T09:47:14;94250.31;;;4.76;85.56
52105;BME280;38103;42.776;23.112;2023-01-15T09:55:24;94248.03;;;4.95;88.22
52105;BME280;38103;42.776;23.112;2023-01-15T09:57:54;94230.59;;;4.80;86.66
52105;BME280;38103;42.776;23.112;2023-01-15T10:00:22;94244.78;;;4.93;87.54
52105;BME280;38103;42.776;23.112;2023-01-15T10:03:00;94243.56;;;4.89;87.80
52105;BME280;38103;42.776;23.112;2023-01-15T10:05:34;94237.16;;;4.98;87.56
52105;BME280;38103;42.776;23.112;2023-01-15T10:08:13;94230.25;;;4.90;87.44
52105;BME280;38103;42.776;23.112;2023-01-15T10:10:54;94235.84;;;4.80;87.13
52105;BME280;38103;42.776;23.112;2023-01-15T10:15:55;94168.91;;;4.71;87.00
52105;BME280;38103;42.776;23.112;2023-01-15T10:18:23;94217.88;;;5.13;86.92
52105;BME280;38103;42.776;23.112;2023-01-15T10:29:43;94195.53;;;4.24;91.10
52105;BME280;38103;42.776;23.112;2023-01-15T10:44:14;94155.28;;;4.25;90.83
52105;BME280;38103;42.776;23.112;2023-01-15T10:46:46;94162.91;;;4.20;91.16
52105;BME280;38103;42.776;23.112;2023-01-15T10:49:15;94161.75;;;4.29;89.61
52105;BME280;38103;42.776;23.112;2023-01-15T10:51:44;94157.38;;;4.36;89.07
52105;BME280;38103;42.776;23.112;2023-01-15T10:54:19;94156.16;;;4.32;90.69
52105;BME280;38103;42.776;23.112;2023-01-15T10:56:56;94154.03;;;4.50;89.23
52105;BME280;38103;42.776;23.112;2023-01-15T10:59:48;94147.47;;;4.61;86.37
52105;BME280;38103;42.776;23.112;2023-01-15T11:04:50;94147.97;;;4.78;86.92
52105;BME280;38103;42.776;23.112;2023-01-15T11:07:16;94139.44;;;5.05;86.74
52105;BME280;38103;42.776;23.112;2023-01-15T11:09:42;94131.81;;;5.10;85.17
52105;BME280;38103;42.776;23.112;2023-01-15T11:14:43;94124.09;;;5.64;83.76
52105;BME280;38103;42.776;23.112;2023-01-15T11:22:46;94116.75;;;5.32;85.85
52105;BME280;38103;42.776;23.112;2023-01-15T11:25:12;94101.84;;;5.46;83.92
52105;BME280;38103;42.776;23.112;2023-01-15T11:27:38;94122.06;;;5.80;83.20
52105;BME280;38103;42.776;23.112;2023-01-15T11:30:05;94109.97;;;5.86;81.88
52105;BME280;38103;42.776;23.112;2023-01-15T11:32:34;94104.75;;;5.79;82.11
52105;BME280;38103;42.776;23.112;2023-01-15T11:35:18;94106.50;;;5.44;82.28
52105;BME280;38103;42.776;23.112;2023-01-15T11:37:43;94106.72;;;5.70;84.08
52105;BME280;38103;42.776;23.112;2023-01-15T11:40:20;94100.31;;;5.79;81.54
52105;BME280;38103;42.776;23.112;2023-01-15T11:42:48;94096.28;;;5.77;83.23
52105;BME280;38103;42.776;23.112;2023-01-15T11:45:32;94093.84;;;5.68;83.24
52105;BME280;38103;42.776;23.112;2023-01-15T11:48:20;94094.66;;;6.03;80.17
52105;BME280;38103;42.776;23.112;2023-01-15T11:51:12;94087.41;;;6.25;81.41
52105;BME280;38103;42.776;23.112;2023-01-15T11:54:02;94085.78;;;6.18;79.63
52105;BME280;38103;42.776;23.112;2023-01-15T11:56:29;94081.34;;;6.11;80.71
52105;BME280;38103;42.776;23.112;2023-01-15T11:59:00;94035.53;;;5.66;80.47
52105;BME280;38103;42.776;23.112;2023-01-15T12:01:31;94045.41;;;5.78;81.16
52105;BME280;38103;42.776;23.112;2023-01-15T12:03:59;94081.13;;;5.79;80.87
52105;BME280;38103;42.776;23.112;2023-01-15T12:06:26;94065.56;;;5.70;80.46
52105;BME280;38103;42.776;23.112;2023-01-15T12:22:15;94050.22;;;5.47;84.46
52105;BME280;38103;42.776;23.112;2023-01-15T12:32:41;93990.50;;;5.15;83.82
52105;BME280;38103;42.776;23.112;2023-01-15T12:35:17;93990.91;;;5.25;85.12
52105;BME280;38103;42.776;23.112;2023-01-15T12:38:11;94033.66;;;5.46;85.49
52105;BME280;38103;42.776;23.112;2023-01-15T12:40:59;94040.13;;;5.37;84.67
52105;BME280;38103;42.776;23.112;2023-01-15T12:43:27;94044.56;;;5.30;84.60
52105;BME280;38103;42.776;23.112;2023-01-15T12:46:17;94013.06;;;5.16;86.29
52105;BME280;38103;42.776;23.112;2023-01-15T12:48:50;94040.94;;;5.44;86.05
52105;BME280;38103;42.776;23.112;2023-01-15T12:51:25;94031.06;;;5.46;85.08
52105;BME280;38103;42.776;23.112;2023-01-15T12:53:57;94030.84;;;5.28;85.95
52105;BME280;38103;42.776;23.112;2023-01-15T12:56:44;94026.81;;;5.32;85.66
52105;BME280;38103;42.776;23.112;2023-01-15T12:59:21;93990.88;;;4.98;84.23
52105;BME280;38103;42.776;23.112;2023-01-15T13:04:21;94015.13;;;5.28;83.07
52105;BME280;38103;42.776;23.112;2023-01-15T13:06:56;94016.06;;;5.13;84.00
52105;BME280;38103;42.776;23.112;2023-01-15T13:09:43;94008.03;;;5.14;85.56
52105;BME280;38103;42.776;23.112;2023-01-15T13:12:15;93965.88;;;4.89;85.70
52105;BME280;38103;42.776;23.112;2023-01-15T13:14:41;94011.84;;;5.12;87.30
52105;BME280;38103;42.776;23.112;2023-01-15T13:17:16;93999.34;;;5.07;88.68
52105;BME280;38103;42.776;23.112;2023-01-15T13:22:31;94004.19;;;5.03;89.00
52105;BME280;38103;42.776;23.112;2023-01-15T13:27:58;93999.75;;;5.11;88.28
52105;BME280;38103;42.776;23.112;2023-01-15T13:30:46;93999.75;;;5.04;88.64
52105;BME280;38103;42.776;23.112;2023-01-15T13:33:52;93993.47;;;4.98;89.70
52105;BME280;38103;42.776;23.112;2023-01-15T13:36:24;93989.47;;;5.02;89.86
52105;BME280;38103;42.776;23.112;2023-01-15T13:38:54;93992.50;;;4.99;89.76
52105;BME280;38103;42.776;23.112;2023-01-15T13:41:25;93996.09;;;4.98;90.26
52105;BME280;38103;42.776;23.112;2023-01-15T13:44:21;93995.72;;;4.95;89.15
52105;BME280;38103;42.776;23.112;2023-01-15T13:46:58;93990.66;;;4.93;89.47
52105;BME280;38103;42.776;23.112;2023-01-15T13:49:39;93982.19;;;4.91;90.27
52105;BME280;38103;42.776;23.112;2023-01-15T13:52:07;93987.63;;;4.89;89.26
52105;BME280;38103;42.776;23.112;2023-01-15T13:54:44;93989.22;;;4.84;90.45
52105;BME280;38103;42.776;23.112;2023-01-15T13:57:22;93982.75;;;4.79;91.37
52105;BME280;38103;42.776;23.112;2023-01-15T13:59:49;93977.50;;;4.79;93.07
52105;BME280;38103;42.776;23.112;2023-01-15T14:02:24;93988.41;;;4.76;91.68
52105;BME280;38103;42.776;23.112;2023-01-15T14:04:50;93977.09;;;4.69;92.08
52105;BME280;38103;42.776;23.112;2023-01-15T14:07:35;93990.38;;;4.74;92.25
52105;BME280;38103;42.776;23.112;2023-01-15T14:18:15;93988.34;;;4.63;93.01
52105;BME280;38103;42.776;23.112;2023-01-15T14:23:25;93984.75;;;4.64;93.27
52105;BME280;38103;42.776;23.112;2023-01-15T14:32:02;93978.69;;;4.63;93.71
52105;BME280;38103;42.776;23.112;2023-01-15T14:34:32;93972.19;;;4.52;94.40
52105;BME280;38103;42.776;23.112;2023-01-15T14:37:02;93964.03;;;4.27;96.26
52105;BME280;38103;42.776;23.112;2023-01-15T14:45:02;93986.09;;;4.10;98.67
52105;BME280;38103;42.776;23.112;2023-01-15T14:47:45;93977.41;;;4.03;98.86
52105;BME280;38103;42.776;23.112;2023-01-15T14:50:30;93985.03;;;3.98;99.17
52105;BME280;38103;42.776;23.112;2023-01-15T14:53:16;93990.88;;;4.00;99.05
52105;BME280;38103;42.776;23.112;2023-01-15T14:55:50;93981.59;;;3.97;99.21
52105;BME280;38103;42.776;23.112;2023-01-15T15:01:26;93989.19;;;3.85;100.00
52105;BME280;38103;42.776;23.112;2023-01-15T15:03:57;93980.25;;;3.73;100.00
52105;BME280;38103;42.776;23.112;2023-01-15T15:06:25;93995.50;;;3.69;100.00
52105;BME280;38103;42.776;23.112;2023-01-15T15:09:00;93985.38;;;3.59;100.00
52105;BME280;38103;42.776;23.112;2023-01-15T15:11:35;93987.50;;;3.49;100.00
52105;BME280;38103;42.776;23.112;2023-01-15T15:14:23;93996.59;;;3.53;100.00
52105;BME280;38103;42.776;23.112;2023-01-15T15:16:51;93992.59;;;3.57;100.00
52105;BME280;38103;42.776;23.112;2023-01-15T15:19:29;93987.75;;;3.54;100.00